sensor_id;sensor_type;location;lat;lon;timestamp;pressure;altitude;pressure_sealevel;temperature;humidity
76358;BME280;65185;21.060;105.826;2023-02-08T00:00:51;101394.63;;;20.16;100.00
76358;BME280;65185;21.060;105.826;2023-02-08T00:03:18;101406.81;;;20.19;100.00
76358;BME280;65185;21.060;105.826;2023-02-08T00:05:45;101398.16;;;20.17;100.00
76358;BME280;65185;21.060;105.826;2023-02-08T00:08:12;101408.03;;;20.13;100.00
76358;BME280;65185;21.060;105.826;2023-02-08T00:10:43;101404.63;;;20.21;100.00
76358;BME280;65185;21.060;105.826;2023-02-08T00:13:10;101416.44;;;20.16;100.00
76358;BME280;65185;21.060;105.826;2023-02-08T00:15:41;101404.41;;;20.17;100.00
76358;BME280;65185;21.060;105.826;2023-02-08T00:18:08;101411.28;;;20.15;100.00
76358;BME280;65185;21.060;105.826;2023-02-08T00:20:38;101411.28;;;20.15;100.00
76358;BME280;65185;21.060;105.826;2023-02-08T00:23:05;101408.03;;;20.13;100.00
76358;BME280;65185;21.060;105.826;2023-02-08T00:25:33;101409.94;;;20.12;100.00
76358;BME280;65185;21.060;105.826;2023-02-08T00:28:00;101415.72;;;20.11;100.00
76358;BME280;65185;21.060;105.826;2023-02-08T00:30:27;101407.56;;;20.11;100.00
76358;BME280;65185;21.060;105.826;2023-02-08T00:33:05;101411.88;;;20.12;100.00
76358;BME280;65185;21.060;105.826;2023-02-08T00:35:32;101408.38;;;20.11;100.00
76358;BME280;65185;21.060;105.826;2023-02-08T00:37:59;101415.41;;;20.12;100.00
76358;BME280;65185;21.060;105.826;2023-02-08T00:40:26;101414.59;;;20.12;100.00
76358;BME280;65185;21.060;105.826;2023-02-08T00:42:53;101415.72;;;20.11;100.00
76358;BME280;65185;21.060;105.826;2023-02-08T00:45:20;101423.91;;;20.11;100.00
76358;BME280;65185;21.060;105.826;2023-02-08T00:47:48;101429.84;;;20.13;100.00
76358;BME280;65185;21.060;105.826;2023-02-08T00:50:15;101438.84;;;20.13;100.00
76358;BME280;65185;21.060;105.826;2023-02-08T00:52:42;101437.44;;;20.16;100.00
76358;BME280;65185;21.060;105.826;2023-02-08T00:55:09;101435.91;;;20.23;100.00
76358;BME280;65185;21.060;105.826;2023-02-08T00:57:36;101428.66;;;20.19;100.00
76358;BME280;65185;21.060;105.826;2023-02-08T01:00:05;101434.41;;;20.17;100.00
76358;BME280;65185;21.060;105.826;2023-02-08T01:02:32;101436.03;;;20.18;100.00
76358;BME280;65185;21.060;105.826;2023-02-08T01:04:59;101446.94;;;20.18;100.00
76358;BME280;65185;21.060;105.826;2023-02-08T01:07:26;101449.97;;;20.17;100.00
76358;BME280;65185;21.060;105.826;2023-02-08T01:09:53;101450.97;;;20.21;100.00
76358;BME280;65185;21.060;105.826;2023-02-08T01:12:23;101461.38;;;20.19;100.00
76358;BME280;65185;21.060;105.826;2023-02-08T01:14:50;101456.22;;;20.17;100.00
76358;BME280;65185;21.060;105.826;2023-02-08T01:17:17;101464.91;;;20.19;100.00
76358;BME280;65185;21.060;105.826;2023-02-08T01:19:44;101469.06;;;20.17;100.00
76358;BME280;65185;21.060;105.826;2023-02-08T01:22:11;101477.25;;;20.17;100.00
76358;BME280;65185;21.060;105.826;2023-02-08T01:24:38;101480.75;;;20.17;100.00
76358;BME280;65185;21.060;105.826;2023-02-08T01:27:05;101483.72;;;20.21;100.00
76358;BME280;65185;21.060;105.826;2023-02-08T01:29:32;101476.53;;;20.25;100.00
76358;BME280;65185;21.060;105.826;2023-02-08T01:31:59;101487.53;;;20.20;100.00
76358;BME280;65185;21.060;105.826;2023-02-08T01:34:26;101494.00;;;20.24;100.00
76358;BME280;65185;21.060;105.826;2023-02-08T01:36:52;101496.72;;;20.24;100.00
76358;BME280;65185;21.060;105.826;2023-02-08T01:39:20;101499.25;;;20.20;100.00
76358;BME280;65185;21.060;105.826;2023-02-08T01:41:47;101493.63;;;20.17;100.00
76358;BME280;65185;21.060;105.826;2023-02-08T01:46:47;101509.97;;;20.17;100.00
76358;BME280;65185;21.060;105.826;2023-02-08T01:51:55;101512.09;;;20.20;100.00
76358;BME280;65185;21.060;105.826;2023-02-08T01:54:26;101507.75;;;20.19;100.00
76358;BME280;65185;21.060;105.826;2023-02-08T01:56:54;101505.53;;;20.21;100.00
76358;BME280;65185;21.060;105.826;2023-02-08T01:59:25;101507.16;;;20.22;100.00
76358;BME280;65185;21.060;105.826;2023-02-08T02:01:55;101518.56;;;20.24;100.00
76358;BME280;65185;21.060;105.826;2023-02-08T02:04:24;101516.63;;;20.24;100.00
76358;BME280;65185;21.060;105.826;2023-02-08T02:06:57;101513.63;;;20.26;100.00
76358;BME280;65185;21.060;105.826;2023-02-08T02:09:39;101514.44;;;20.26;100.00
76358;BME280;65185;21.060;105.826;2023-02-08T02:12:08;101523.09;;;20.28;100.00
76358;BME280;65185;21.060;105.826;2023-02-08T02:14:37;101525.53;;;20.30;100.00
76358;BME280;65185;21.060;105.826;2023-02-08T02:17:05;101520.06;;;20.30;100.00
76358;BME280;65185;21.060;105.826;2023-02-08T02:37:24;101532.53;;;20.36;100.00
76358;BME280;65185;21.060;105.826;2023-02-08T02:40:00;101523.84;;;20.34;100.00
76358;BME280;65185;21.060;105.826;2023-02-08T02:42:59;101530.44;;;20.33;100.00
76358;BME280;65185;21.060;105.826;2023-02-08T02:45:45;101522.53;;;20.31;100.00
76358;BME280;65185;21.060;105.826;2023-02-08T02:56:21;101521.34;;;20.38;100.00
76358;BME280;65185;21.060;105.826;2023-02-08T02:58:50;101511.25;;;20.38;100.00
76358;BME280;65185;21.060;105.826;2023-02-08T03:01:22;101512.34;;;20.37;100.00
76358;BME280;65185;21.060;105.826;2023-02-08T03:03:55;101507.47;;;20.34;100.00
76358;BME280;65185;21.060;105.826;2023-02-08T03:15:15;101495.47;;;20.35;100.00
76358;BME280;65185;21.060;105.826;2023-02-08T03:20:37;101491.03;;;20.39;100.00
76358;BME280;65185;21.060;105.826;2023-02-08T03:23:34;101487.78;;;20.37;100.00
76358;BME280;65185;21.060;105.826;2023-02-08T03:29:02;101478.59;;;20.33;100.00
76358;BME280;65185;21.060;105.826;2023-02-08T03:32:10;101473.97;;;20.33;100.00
76358;BME280;65185;21.060;105.826;2023-02-08T03:37:26;101473.53;;;20.40;100.00
76358;BME280;65185;21.060;105.826;2023-02-08T03:40:03;101472.41;;;20.41;100.00
76358;BME280;65185;21.060;105.826;2023-02-08T03:42:33;101470.22;;;20.43;100.00
76358;BME280;65185;21.060;105.826;2023-02-08T03:45:19;101460.09;;;20.44;100.00
76358;BME280;65185;21.060;105.826;2023-02-08T03:47:49;101453.84;;;20.43;100.00
76358;BME280;65185;21.060;105.826;2023-02-08T03:50:19;101448.56;;;20.47;100.00
76358;BME280;65185;21.060;105.826;2023-02-08T03:52:49;101452.13;;;20.47;100.00
76358;BME280;65185;21.060;105.826;2023-02-08T03:55:30;101443.13;;;20.47;100.00
76358;BME280;65185;21.060;105.826;2023-02-08T03:58:12;101441.72;;;20.49;100.00
76358;BME280;65185;21.060;105.826;2023-02-08T04:01:11;101434.63;;;20.48;100.00
76358;BME280;65185;21.060;105.826;2023-02-08T04:03:34;101436.25;;;20.49;100.00
76358;BME280;65185;21.060;105.826;2023-02-08T04:06:02;101428.06;;;20.49;100.00
76358;BME280;65185;21.060;105.826;2023-02-08T04:08:38;101430.16;;;20.52;100.00
76358;BME280;65185;21.060;105.826;2023-02-08T04:11:09;101431.59;;;20.50;100.00
76358;BME280;65185;21.060;105.826;2023-02-08T04:13:36;101427.97;;;20.54;100.00
76358;BME280;65185;21.060;105.826;2023-02-08T04:16:03;101419.66;;;20.59;100.00
76358;BME280;65185;21.060;105.826;2023-02-08T04:18:30;101414.03;;;20.56;100.00
76358;BME280;65185;21.060;105.826;2023-02-08T04:20:57;101416.22;;;20.54;100.00
76358;BME280;65185;21.060;105.826;2023-02-08T04:23:24;101409.44;;;20.51;100.00
76358;BME280;65185;21.060;105.826;2023-02-08T04:25:51;101406.00;;;20.59;100.00
76358;BME280;65185;21.060;105.826;2023-02-08T04:28:18;101407.94;;;20.59;100.00
76358;BME280;65185;21.060;105.826;2023-02-08T04:30:45;101401.47;;;20.55;100.00
76358;BME280;65185;21.060;105.826;2023-02-08T04:33:12;101397.44;;;20.52;100.00
76358;BME280;65185;21.060;105.826;2023-02-08T04:35:41;101392.78;;;20.53;100.00
76358;BME280;65185;21.060;105.826;2023-02-08T04:38:08;101388.66;;;20.55;100.00
76358;BME280;65185;21.060;105.826;2023-02-08T04:40:35;101378.03;;;20.54;100.00
76358;BME280;65185;21.060;105.826;2023-02-08T04:43:02;101380.25;;;20.52;100.00
76358;BME280;65185;21.060;105.826;2023-02-08T04:45:29;101374.31;;;20.50;100.00
76358;BME280;65185;21.060;105.826;2023-02-08T04:47:59;101359.03;;;20.49;100.00
76358;BME280;65185;21.060;105.826;2023-02-08T04:50:26;101353.28;;;20.50;100.00
76358;BME280;65185;21.060;105.826;2023-02-08T04:52:53;101357.13;;;20.49;100.00
76358;BME280;65185;21.060;105.826;2023-02-08T04:55:20;101348.13;;;20.49;100.00
76358;BME280;65185;21.060;105.826;2023-02-08T04:57:47;101352.78;;;20.48;100.00
76358;BME280;65185;21.060;105.826;2023-02-08T05:00:15;101336.69;;;20.47;100.00
76358;BME280;65185;21.060;105.826;2023-02-08T05:02:42;101331.75;;;20.49;100.00
76358;BME280;65185;21.060;105.826;2023-02-08T05:05:09;101327.91;;;20.50;100.00
76358;BME280;65185;21.060;105.826;2023-02-08T05:07:36;101330.53;;;20.55;100.00
76358;BME280;65185;21.060;105.826;2023-02-08T05:10:04;101325.88;;;20.55;100.00
76358;BME280;65185;21.060;105.826;2023-02-08T05:12:31;101310.09;;;20.52;100.00
76358;BME280;65185;21.060;105.826;2023-02-08T05:14:58;101305.47;;;20.53;100.00
76358;BME280;65185;21.060;105.826;2023-02-08T05:17:25;101306.28;;;20.53;100.00
76358;BME280;65185;21.060;105.826;2023-02-08T05:19:51;101296.47;;;20.52;100.00
76358;BME280;65185;21.060;105.826;2023-02-08T05:22:18;101293.72;;;20.52;100.00
76358;BME280;65185;21.060;105.826;2023-02-08T05:24:45;101283.81;;;20.56;100.00
76358;BME280;65185;21.060;105.826;2023-02-08T05:27:12;101277.91;;;20.63;100.00
76358;BME280;65185;21.060;105.826;2023-02-08T05:29:39;101276.50;;;20.65;100.00
76358;BME280;65185;21.060;105.826;2023-02-08T05:32:08;101274.09;;;20.64;100.00
76358;BME280;65185;21.060;105.826;2023-02-08T05:34:36;101269.75;;;20.63;100.00
76358;BME280;65185;21.060;105.826;2023-02-08T05:37:03;101267.81;;;20.63;100.00
76358;BME280;65185;21.060;105.826;2023-02-08T05:39:30;101265.09;;;20.63;100.00
76358;BME280;65185;21.060;105.826;2023-02-08T05:41:57;101266.19;;;20.62;100.00
76358;BME280;65185;21.060;105.826;2023-02-08T05:44:24;101259.63;;;20.63;100.00
76358;BME280;65185;21.060;105.826;2023-02-08T05:46:51;101257.09;;;20.67;100.00
76358;BME280;65185;21.060;105.826;2023-02-08T05:49:21;101246.97;;;20.67;100.00
76358;BME280;65185;21.060;105.826;2023-02-08T05:51:48;101238.97;;;20.71;100.00
76358;BME280;65185;21.060;105.826;2023-02-08T05:54:16;101236.84;;;20.68;100.00
76358;BME280;65185;21.060;105.826;2023-02-08T05:56:43;101227.09;;;20.67;100.00
76358;BME280;65185;21.060;105.826;2023-02-08T05:59:10;101227.38;;;20.65;100.00
76358;BME280;65185;21.060;105.826;2023-02-08T06:01:38;101213.22;;;20.63;100.00
76358;BME280;65185;21.060;105.826;2023-02-08T06:04:05;101214.84;;;20.64;100.00
76358;BME280;65185;21.060;105.826;2023-02-08T06:06:32;101214.84;;;20.64;100.00
76358;BME280;65185;21.060;105.826;2023-02-08T06:08:59;101206.66;;;20.64;100.00
76358;BME280;65185;21.060;105.826;2023-02-08T06:11:26;101200.41;;;20.64;100.00
76358;BME280;65185;21.060;105.826;2023-02-08T06:13:53;101196.25;;;20.66;100.00
76358;BME280;65185;21.060;105.826;2023-02-08T06:16:20;101184.19;;;20.67;100.00
76358;BME280;65185;21.060;105.826;2023-02-08T06:18:47;101177.16;;;20.66;100.00
76358;BME280;65185;21.060;105.826;2023-02-08T06:21:13;101177.81;;;20.72;100.00
76358;BME280;65185;21.060;105.826;2023-02-08T06:23:40;101175.41;;;20.70;100.00
76358;BME280;65185;21.060;105.826;2023-02-08T06:26:07;101173.78;;;20.69;100.00
76358;BME280;65185;21.060;105.826;2023-02-08T06:28:34;101157.91;;;20.71;100.00
76358;BME280;65185;21.060;105.826;2023-02-08T06:31:01;101156.78;;;20.72;100.00
76358;BME280;65185;21.060;105.826;2023-02-08T06:33:28;101154.06;;;20.72;100.00
76358;BME280;65185;21.060;105.826;2023-02-08T06:35:55;101154.88;;;20.73;100.00
76358;BME280;65185;21.060;105.826;2023-02-08T06:38:22;101155.84;;;20.77;100.00
76358;BME280;65185;21.060;105.826;2023-02-08T06:40:49;101150.69;;;20.75;100.00
76358;BME280;65185;21.060;105.826;2023-02-08T06:43:16;101149.88;;;20.75;100.00
76358;BME280;65185;21.060;105.826;2023-02-08T06:45:47;101149.88;;;20.75;100.00
76358;BME280;65185;21.060;105.826;2023-02-08T06:48:14;101151.00;;;20.74;100.00
76358;BME280;65185;21.060;105.826;2023-02-08T06:50:41;101140.88;;;20.74;100.00
76358;BME280;65185;21.060;105.826;2023-02-08T06:53:08;101142.00;;;20.73;100.00
76358;BME280;65185;21.060;105.826;2023-02-08T06:55:35;101142.81;;;20.74;100.00
76358;BME280;65185;21.060;105.826;2023-02-08T06:58:03;101134.63;;;20.74;100.00
76358;BME280;65185;21.060;105.826;2023-02-08T07:00:30;101131.09;;;20.73;100.00
76358;BME280;65185;21.060;105.826;2023-02-08T07:02:58;101132.69;;;20.74;100.00
76358;BME280;65185;21.060;105.826;2023-02-08T07:05:25;101128.34;;;20.73;100.00
76358;BME280;65185;21.060;105.826;2023-02-08T07:07:55;101128.03;;;20.75;100.00
76358;BME280;65185;21.060;105.826;2023-02-08T07:10:25;101127.25;;;20.74;100.00
76358;BME280;65185;21.060;105.826;2023-02-08T07:12:53;101128.03;;;20.75;100.00
76358;BME280;65185;21.060;105.826;2023-02-08T07:15:19;101117.63;;;20.77;100.00
76358;BME280;65185;21.060;105.826;2023-02-08T07:17:46;101115.38;;;20.79;100.00
76358;BME280;65185;21.060;105.826;2023-02-08T07:20:13;101117.19;;;20.84;100.00
76358;BME280;65185;21.060;105.826;2023-02-08T07:22:41;101122.13;;;20.82;100.00
76358;BME280;65185;21.060;105.826;2023-02-08T07:25:08;101120.84;;;20.79;100.00
76358;BME280;65185;21.060;105.826;2023-02-08T07:27:35;101114.59;;;20.79;100.00
76358;BME280;65185;21.060;105.826;2023-02-08T07:30:02;101114.91;;;20.77;100.00
76358;BME280;65185;21.060;105.826;2023-02-08T07:32:30;101110.56;;;20.76;100.00
76358;BME280;65185;21.060;105.826;2023-02-08T07:34:57;101103.97;;;20.77;100.00
76358;BME280;65185;21.060;105.826;2023-02-08T07:37:24;101103.19;;;20.77;100.00
76358;BME280;65185;21.060;105.826;2023-02-08T07:39:51;101093.88;;;20.78;100.00
76358;BME280;65185;21.060;105.826;2023-02-08T07:42:18;101099.63;;;20.76;100.00
76358;BME280;65185;21.060;105.826;2023-02-08T07:44:45;101085.34;;;20.79;100.00
76358;BME280;65185;21.060;105.826;2023-02-08T07:47:12;101083.75;;;20.78;100.00
76358;BME280;65185;21.060;105.826;2023-02-08T07:49:39;101077.50;;;20.78;100.00
76358;BME280;65185;21.060;105.826;2023-02-08T07:52:06;101072.03;;;20.78;100.00
76358;BME280;65185;21.060;105.826;2023-02-08T07:54:33;101073.66;;;20.79;100.00
76358;BME280;65185;21.060;105.826;2023-02-08T07:57:00;101054.53;;;20.79;100.00
76358;BME280;65185;21.060;105.826;2023-02-08T07:59:26;101056.13;;;20.80;100.00
76358;BME280;65185;21.060;105.826;2023-02-08T08:01:53;101056.13;;;20.80;100.00
76358;BME280;65185;21.060;105.826;2023-02-08T08:04:23;101054.88;;;20.86;100.00
76358;BME280;65185;21.060;105.826;2023-02-08T08:06:54;101049.41;;;20.86;100.00
76358;BME280;65185;21.060;105.826;2023-02-08T08:09:24;101053.75;;;20.87;100.00
76358;BME280;65185;21.060;105.826;2023-02-08T08:11:52;101048.28;;;20.87;100.00
76358;BME280;65185;21.060;105.826;2023-02-08T08:14:18;101045.59;;;20.95;100.00
76358;BME280;65185;21.060;105.826;2023-02-08T08:16:45;101045.41;;;20.92;100.00
76358;BME280;65185;21.060;105.826;2023-02-08T08:19:12;101038.34;;;20.91;100.00
76358;BME280;65185;21.060;105.826;2023-02-08T08:21:39;101035.59;;;20.91;100.00
76358;BME280;65185;21.060;105.826;2023-02-08T08:24:06;101034.03;;;20.90;100.00
76358;BME280;65185;21.060;105.826;2023-02-08T08:26:33;101033.38;;;20.93;100.00
76358;BME280;65185;21.060;105.826;2023-02-08T08:29:01;101034.19;;;20.93;100.00
76358;BME280;65185;21.060;105.826;2023-02-08T08:31:28;101026.16;;;20.97;100.00
76358;BME280;65185;21.060;105.826;2023-02-08T08:33:56;101026.94;;;20.97;100.00
76358;BME280;65185;21.060;105.826;2023-02-08T08:36:22;101032.72;;;20.96;100.00
76358;BME280;65185;21.060;105.826;2023-02-08T08:38:50;101033.88;;;20.95;100.00
76358;BME280;65185;21.060;105.826;2023-02-08T08:41:18;101024.06;;;20.94;100.00
76358;BME280;65185;21.060;105.826;2023-02-08T08:43:47;101038.84;;;21.01;100.00
76358;BME280;65185;21.060;105.826;2023-02-08T08:46:14;101027.28;;;21.04;100.00
76358;BME280;65185;21.060;105.826;2023-02-08T08:48:41;101025.06;;;21.06;100.00
76358;BME280;65185;21.060;105.826;2023-02-08T08:51:09;101038.38;;;21.08;100.00
76358;BME280;65185;21.060;105.826;2023-02-08T08:53:35;101048.69;;;21.11;100.00
76358;BME280;65185;21.060;105.826;2023-02-08T08:56:03;101045.16;;;21.10;100.00
76358;BME280;65185;21.060;105.826;2023-02-08T08:58:30;101030.69;;;21.10;100.00
76358;BME280;65185;21.060;105.826;2023-02-08T09:00:58;101026.97;;;21.06;100.00
76358;BME280;65185;21.060;105.826;2023-02-08T09:03:26;101024.88;;;21.03;100.00
76358;BME280;65185;21.060;105.826;2023-02-08T09:05:54;101038.06;;;21.01;100.00
76358;BME280;65185;21.060;105.826;2023-02-08T09:08:21;101036.75;;;20.98;100.00
76358;BME280;65185;21.060;105.826;2023-02-08T09:10:48;101019.25;;;20.99;100.00
76358;BME280;65185;21.060;105.826;2023-02-08T09:13:15;101022.78;;;21.00;100.00
76358;BME280;65185;21.060;105.826;2023-02-08T09:15:45;101025.84;;;20.98;100.00
76358;BME280;65185;21.060;105.826;2023-02-08T09:18:12;101023.09;;;20.98;100.00
76358;BME280;65185;21.060;105.826;2023-02-08T09:20:40;101031.28;;;20.98;100.00
76358;BME280;65185;21.060;105.826;2023-02-08T09:23:07;101028.56;;;20.98;100.00
76358;BME280;65185;21.060;105.826;2023-02-08T09:25:41;101022.19;;;21.11;100.00
76358;BME280;65185;21.060;105.826;2023-02-08T09:28:08;101026.38;;;21.35;100.00
76358;BME280;65185;21.060;105.826;2023-02-08T09:30:35;101018.53;;;21.33;100.00
76358;BME280;65185;21.060;105.826;2023-02-08T09:33:02;101016.41;;;21.30;100.00
76358;BME280;65185;21.060;105.826;2023-02-08T09:35:29;101021.72;;;21.35;100.00
76358;BME280;65185;21.060;105.826;2023-02-08T09:37:56;101026.56;;;21.47;100.00
76358;BME280;65185;21.060;105.826;2023-02-08T09:40:58;101023.34;;;21.36;100.00
76358;BME280;65185;21.060;105.826;2023-02-08T09:43:30;101029.94;;;21.44;100.00
76358;BME280;65185;21.060;105.826;2023-02-08T09:46:10;101030.75;;;21.44;100.00
76358;BME280;65185;21.060;105.826;2023-02-08T09:48:41;101027.84;;;21.41;100.00
76358;BME280;65185;21.060;105.826;2023-02-08T09:53:56;101038.44;;;21.42;100.00
76358;BME280;65185;21.060;105.826;2023-02-08T09:56:37;101035.38;;;21.35;100.00
76358;BME280;65185;21.060;105.826;2023-02-08T09:59:15;101039.09;;;21.39;100.00
76358;BME280;65185;21.060;105.826;2023-02-08T10:01:42;101034.28;;;21.36;100.00
76358;BME280;65185;21.060;105.826;2023-02-08T10:04:47;101031.34;;;21.24;100.00
76358;BME280;65185;21.060;105.826;2023-02-08T10:07:18;101033.44;;;21.19;100.00
76358;BME280;65185;21.060;105.826;2023-02-08T10:09:45;101029.28;;;21.21;100.00
76358;BME280;65185;21.060;105.826;2023-02-08T10:18:07;101039.25;;;21.17;100.00
76358;BME280;65185;21.060;105.826;2023-02-08T10:23:42;101041.47;;;21.15;100.00
76358;BME280;65185;21.060;105.826;2023-02-08T10:26:29;101047.06;;;21.10;100.00
76358;BME280;65185;21.060;105.826;2023-02-08T10:32:35;101049.03;;;21.18;100.00
76358;BME280;65185;21.060;105.826;2023-02-08T10:35:11;101056.53;;;21.12;100.00
76358;BME280;65185;21.060;105.826;2023-02-08T10:37:41;101058.16;;;21.13;100.00
76358;BME280;65185;21.060;105.826;2023-02-08T10:40:30;101069.06;;;21.13;100.00
76358;BME280;65185;21.060;105.826;2023-02-08T10:51:39;101052.13;;;20.86;100.00
76358;BME280;65185;21.060;105.826;2023-02-08T10:54:13;101057.13;;;20.84;100.00
76358;BME280;65185;21.060;105.826;2023-02-08T10:56:45;101060.16;;;20.82;100.00
76358;BME280;65185;21.060;105.826;2023-02-08T11:01:52;101060.53;;;20.98;100.00
76358;BME280;65185;21.060;105.826;2023-02-08T11:04:20;101059.91;;;21.01;100.00
76358;BME280;65185;21.060;105.826;2023-02-08T11:06:48;101050.88;;;20.92;100.00
76358;BME280;65185;21.060;105.826;2023-02-08T11:09:23;101058.09;;;20.88;100.00
76358;BME280;65185;21.060;105.826;2023-02-08T11:11:51;101048.94;;;20.84;100.00
76358;BME280;65185;21.060;105.826;2023-02-08T11:14:38;101060.97;;;20.83;100.00
76358;BME280;65185;21.060;105.826;2023-02-08T11:19:52;101076.84;;;20.81;100.00
76358;BME280;65185;21.060;105.826;2023-02-08T11:22:21;101083.75;;;20.78;100.00
76358;BME280;65185;21.060;105.826;2023-02-08T11:25:00;101086.78;;;20.77;100.00
76358;BME280;65185;21.060;105.826;2023-02-08T11:27:36;101092.75;;;20.79;100.00
76358;BME280;65185;21.060;105.826;2023-02-08T11:30:19;101085.19;;;20.75;100.00
76358;BME280;65185;21.060;105.826;2023-02-08T11:32:49;101096.41;;;20.74;100.00
76358;BME280;65185;21.060;105.826;2023-02-08T11:35:35;101088.22;;;20.74;100.00
76358;BME280;65185;21.060;105.826;2023-02-08T11:38:02;101103.78;;;20.73;100.00
76358;BME280;65185;21.060;105.826;2023-02-08T11:40:41;101108.13;;;20.74;100.00
76358;BME280;65185;21.060;105.826;2023-02-08T11:43:23;101104.78;;;20.78;100.00
76358;BME280;65185;21.060;105.826;2023-02-08T11:45:51;101104.94;;;20.72;100.00
76358;BME280;65185;21.060;105.826;2023-02-08T11:48:41;101107.66;;;20.72;100.00
76358;BME280;65185;21.060;105.826;2023-02-08T11:51:11;101115.34;;;20.70;100.00
76358;BME280;65185;21.060;105.826;2023-02-08T11:53:40;101115.34;;;20.70;100.00
76358;BME280;65185;21.060;105.826;2023-02-08T12:01:32;101131.28;;;20.77;100.00
76358;BME280;65185;21.060;105.826;2023-02-08T12:04:03;101135.13;;;20.76;100.00
76358;BME280;65185;21.060;105.826;2023-02-08T12:06:41;101150.19;;;20.73;100.00
76358;BME280;65185;21.060;105.826;2023-02-08T12:20:46;101180.22;;;20.73;100.00
76358;BME280;65185;21.060;105.826;2023-02-08T12:54:33;101241.72;;;20.71;100.00
76358;BME280;65185;21.060;105.826;2023-02-08T12:57:04;101241.19;;;20.69;100.00
76358;BME280;65185;21.060;105.826;2023-02-08T12:59:36;101254.84;;;20.69;100.00
76358;BME280;65185;21.060;105.826;2023-02-08T13:04:52;101258.91;;;20.71;100.00
76358;BME280;65185;21.060;105.826;2023-02-08T13:07:41;101260.19;;;20.74;100.00
76358;BME280;65185;21.060;105.826;2023-02-08T13:13:23;101267.25;;;20.75;100.00
76358;BME280;65185;21.060;105.826;2023-02-08T13:21:32;101275.66;;;20.79;100.00
76358;BME280;65185;21.060;105.826;2023-02-08T13:27:00;101265.34;;;20.75;100.00
76358;BME280;65185;21.060;105.826;2023-02-08T13:29:35;101263.72;;;20.74;100.00
76358;BME280;65185;21.060;105.826;2023-02-08T13:32:09;101262.91;;;20.74;100.00
76358;BME280;65185;21.060;105.826;2023-02-08T13:34:45;101267.56;;;20.73;100.00
76358;BME280;65185;21.060;105.826;2023-02-08T13:37:26;101262.09;;;20.73;100.00
76358;BME280;65185;21.060;105.826;2023-02-08T13:42:47;101265.16;;;20.72;100.00
76358;BME280;65185;21.060;105.826;2023-02-08T13:45:26;101262.44;;;20.72;100.00
76358;BME280;65185;21.060;105.826;2023-02-08T13:47:59;101264.34;;;20.71;100.00
76358;BME280;65185;21.060;105.826;2023-02-08T13:53:14;101267.25;;;20.75;100.00
76358;BME280;65185;21.060;105.826;2023-02-08T13:55:56;101268.72;;;20.72;100.00
76358;BME280;65185;21.060;105.826;2023-02-08T13:58:36;101274.97;;;20.73;100.00
76358;BME280;65185;21.060;105.826;2023-02-08T14:01:33;101279.28;;;20.74;100.00
76358;BME280;65185;21.060;105.826;2023-02-08T14:06:49;101282.22;;;20.78;100.00
76358;BME280;65185;21.060;105.826;2023-02-08T14:12:45;101280.31;;;20.78;100.00
76358;BME280;65185;21.060;105.826;2023-02-08T14:15:26;101277.88;;;20.77;100.00
76358;BME280;65185;21.060;105.826;2023-02-08T14:17:56;101277.06;;;20.76;100.00
76358;BME280;65185;21.060;105.826;2023-02-08T14:20:40;101279.97;;;20.80;100.00
76358;BME280;65185;21.060;105.826;2023-02-08T14:23:28;101278.38;;;20.79;100.00
76358;BME280;65185;21.060;105.826;2023-02-08T14:25:58;101278.38;;;20.79;100.00
76358;BME280;65185;21.060;105.826;2023-02-08T14:28:36;101273.09;;;20.82;100.00
76358;BME280;65185;21.060;105.826;2023-02-08T14:31:08;101274.50;;;20.80;100.00
76358;BME280;65185;21.060;105.826;2023-02-08T14:33:49;101275.66;;;20.79;100.00
76358;BME280;65185;21.060;105.826;2023-02-08T14:36:30;101276.34;;;20.84;100.00
76358;BME280;65185;21.060;105.826;2023-02-08T14:39:07;101280.19;;;20.83;100.00
76358;BME280;65185;21.060;105.826;2023-02-08T14:41:52;101280.47;;;20.82;100.00
76358;BME280;65185;21.060;105.826;2023-02-08T14:50:18;101288.53;;;20.87;100.00
76358;BME280;65185;21.060;105.826;2023-02-08T14:53:05;101288.03;;;20.85;100.00
76358;BME280;65185;21.060;105.826;2023-02-08T14:58:36;101287.34;;;20.79;100.00
76358;BME280;65185;21.060;105.826;2023-02-08T15:01:54;101284.31;;;20.81;100.00
76358;BME280;65185;21.060;105.826;2023-02-08T15:04:03;101281.59;;;20.81;100.00
76358;BME280;65185;21.060;105.826;2023-02-08T15:09:24;101281.47;;;20.86;100.00
76358;BME280;65185;21.060;105.826;2023-02-08T15:12:04;101281.97;;;20.88;100.00
76358;BME280;65185;21.060;105.826;2023-02-08T15:14:35;101283.72;;;20.84;100.00
76358;BME280;65185;21.060;105.826;2023-02-08T15:17:03;101279.38;;;20.83;100.00
76358;BME280;65185;21.060;105.826;2023-02-08T15:19:33;101280.31;;;20.78;100.00
76358;BME280;65185;21.060;105.826;2023-02-08T15:24:52;101277.25;;;20.80;100.00